Time;durP1;ratioP1;P1;durP2;ratioP2;P2;SDS_P1;SDS_P2;PMS_P1;PMS_P2;Temp;Humidity;BMP_temperature;BMP_pressure;BME280_temperature;BME280_humidity;BME280_pressure;Samples;Min_cycle;Max_cycle;Signal;HPM_P1;HPM_P2
2023/08/16 00:00:58;;;;;;;;;;;15.20;99.90;;;;;;5151812;27;19951;-43
2023/08/16 00:03:24;;;;;;;;;;;15.10;99.90;;;;;;5156167;27;19907;-43
2023/08/16 00:05:49;;;;;;;;;;;15.10;99.90;;;;;;5156444;27;19907;-43
2023/08/16 00:08:15;;;;;;;;;;;15.00;99.90;;;;;;5155504;27;19918;-44
2023/08/16 00:10:40;;;;;;;;;;;15.00;99.90;;;;;;5156293;27;20383;-44
2023/08/16 00:13:06;;;;;;;;;;;15.00;99.90;;;;;;5156174;27;20408;-44
2023/08/16 00:15:31;;;;;;;;;;;14.90;99.90;;;;;;5155470;27;19911;-43
2023/08/16 00:17:57;;;;;;;;;;;14.80;99.90;;;;;;5156167;27;19907;-43
2023/08/16 00:20:26;;;;;;;;;;;14.70;99.90;;;;;;5155904;27;20039;-42
2023/08/16 00:22:52;;;;;;;;;;;14.60;99.90;;;;;;5155133;27;19951;-44
2023/08/16 00:25:18;;;;;;;;;;;14.50;99.90;;;;;;5155901;27;19998;-43
2023/08/16 00:27:43;;;;;;;;;;;14.40;99.90;;;;;;5149872;27;19911;-42
2023/08/16 00:30:09;;;;;;;;;;;14.50;99.90;;;;;;5134301;27;19968;-44
2023/08/16 00:32:35;;;;;;;;;;;14.50;99.90;;;;;;5135032;27;19914;-41
2023/08/16 00:35:00;;;;;;;;;;;14.40;99.90;;;;;;5135046;27;19915;-42
2023/08/16 00:37:26;;;;;;;;;;;14.40;99.90;;;;;;5134123;27;20331;-44
2023/08/16 00:39:51;;;;;;;;;;;14.50;99.90;;;;;;5134912;27;19962;-42
2023/08/16 00:42:17;;;;;;;;;;;14.40;99.90;;;;;;5134170;27;19969;-42
2023/08/16 00:44:42;;;;;;;;;;;14.40;99.90;;;;;;5125925;27;20316;-44
2023/08/16 00:47:08;;;;;;;;;;;14.40;99.90;;;;;;5134785;27;19912;-45
2023/08/16 00:49:33;;;;;;;;;;;14.40;99.90;;;;;;5133913;27;20389;-42
2023/08/16 00:52:00;;;;;;;;;;;14.30;99.90;;;;;;5134631;27;19907;-43
2023/08/16 00:54:26;;;;;;;;;;;14.30;99.90;;;;;;5134433;27;19976;-43
2023/08/16 00:56:52;;;;;;;;;;;14.30;99.90;;;;;;5117692;27;20352;-44
2023/08/16 00:59:18;;;;;;;;;;;14.30;99.90;;;;;;5113945;28;19908;-43
2023/08/16 01:01:45;;;;;;;;;;;14.30;99.90;;;;;;5113937;28;19938;-43
2023/08/16 01:04:10;;;;;;;;;;;14.30;99.90;;;;;;5113084;28;20362;-44
2023/08/16 01:06:36;;;;;;;;;;;14.20;99.90;;;;;;5122398;27;19923;-46
2023/08/16 01:09:03;;;;;;;;;;;14.20;99.90;;;;;;5134321;27;19990;-43
2023/08/16 01:11:33;;;;;;;;;;;14.20;99.90;;;;;;5133522;27;20314;-42
2023/08/16 01:14:03;;;;;;;;;;;14.20;99.90;;;;;;5134168;27;19968;-43
2023/08/16 01:16:29;;;;;;;;;;;14.10;99.90;;;;;;5134121;27;19915;-44
2023/08/16 01:18:55;;;;;;;;;;;14.00;99.90;;;;;;5133460;27;19907;-42
2023/08/16 01:21:23;;;;;;;;;;;14.00;99.90;;;;;;5134089;27;19907;-42
2023/08/16 01:23:53;;;;;;;;;;;14.00;99.90;;;;;;5134181;27;20365;-42
2023/08/16 01:26:22;;;;;;;;;;;13.90;99.90;;;;;;5133412;27;20294;-45
2023/08/16 01:28:48;;;;;;;;;;;13.90;99.90;;;;;;5134329;27;19998;-42
2023/08/16 01:31:14;;;;;;;;;;;13.80;99.90;;;;;;5133973;27;19911;-42
2023/08/16 01:33:39;;;;;;;;;;;13.80;99.90;;;;;;5132630;27;19916;-43
2023/08/16 01:36:05;;;;;;;;;;;13.80;99.90;;;;;;5136873;27;19987;-42
2023/08/16 01:38:30;;;;;;;;;;;13.80;99.90;;;;;;5153510;27;19911;-42
2023/08/16 01:41:01;;;;;;;;;;;13.80;99.90;;;;;;5154650;27;19907;-43
2023/08/16 01:43:27;;;;;;;;;;;13.80;99.90;;;;;;5154183;27;20255;-42
2023/08/16 01:45:53;;;;;;;;;;;13.80;99.90;;;;;;5152971;27;19960;-43
2023/08/16 01:48:21;;;;;;;;;;;13.80;99.90;;;;;;5132288;27;19912;-42
2023/08/16 01:50:46;;;;;;;;;;;13.80;99.90;;;;;;5126881;27;19907;-44
2023/08/16 01:53:12;;;;;;;;;;;13.80;99.90;;;;;;5132879;27;20274;-41
2023/08/16 01:55:37;;;;;;;;;;;13.90;99.90;;;;;;5134069;27;19907;-42
2023/08/16 01:58:03;;;;;;;;;;;13.90;99.90;;;;;;5151899;27;20392;-41
2023/08/16 02:00:28;;;;;;;;;;;13.90;99.90;;;;;;5153593;27;19911;-42
2023/08/16 02:02:54;;;;;;;;;;;13.90;99.90;;;;;;5154410;27;19914;-42
2023/08/16 02:05:19;;;;;;;;;;;13.90;99.90;;;;;;5152673;27;19911;-43
2023/08/16 02:07:45;;;;;;;;;;;13.90;99.90;;;;;;5153589;27;20034;-43
2023/08/16 02:10:11;;;;;;;;;;;13.90;99.90;;;;;;5154363;27;19908;-43
2023/08/16 02:12:36;;;;;;;;;;;13.80;99.90;;;;;;5154268;27;19914;-41
2023/08/16 02:15:02;;;;;;;;;;;13.80;99.90;;;;;;5153560;27;19922;-42
2023/08/16 02:17:27;;;;;;;;;;;13.80;99.90;;;;;;5153768;27;19933;-43
2023/08/16 02:19:53;;;;;;;;;;;13.70;99.90;;;;;;5154384;27;19954;-43
2023/08/16 02:22:18;;;;;;;;;;;13.70;99.90;;;;;;5153349;27;19907;-45
2023/08/16 02:24:44;;;;;;;;;;;13.70;99.90;;;;;;5153827;27;19915;-43
2023/08/16 02:27:09;;;;;;;;;;;13.60;99.90;;;;;;5154183;27;19958;-42
2023/08/16 02:29:35;;;;;;;;;;;13.60;99.90;;;;;;5153302;27;19960;-42
2023/08/16 02:32:00;;;;;;;;;;;13.60;99.90;;;;;;5154284;27;20337;-44
2023/08/16 02:34:26;;;;;;;;;;;13.60;99.90;;;;;;5147017;27;19923;-43
2023/08/16 02:36:51;;;;;;;;;;;13.60;99.90;;;;;;5132639;28;19954;-43
2023/08/16 02:39:17;;;;;;;;;;;13.50;99.90;;;;;;5133347;28;19907;-44
2023/08/16 02:41:42;;;;;;;;;;;13.60;99.90;;;;;;5132634;28;19959;-43
2023/08/16 02:44:08;;;;;;;;;;;13.50;99.90;;;;;;5132724;27;19943;-42
2023/08/16 02:46:33;;;;;;;;;;;13.50;99.90;;;;;;5137110;27;19975;-42
2023/08/16 02:48:59;;;;;;;;;;;13.50;99.90;;;;;;5136415;27;19918;-41
2023/08/16 02:51:24;;;;;;;;;;;13.40;99.90;;;;;;5137085;27;19907;-44
2023/08/16 02:53:50;;;;;;;;;;;13.40;99.90;;;;;;5136941;27;20442;-42
2023/08/16 02:56:15;;;;;;;;;;;13.40;99.90;;;;;;5136157;27;19915;-41
2023/08/16 02:58:41;;;;;;;;;;;13.40;99.90;;;;;;5136985;27;19914;-43
2023/08/16 03:01:06;;;;;;;;;;;13.40;99.90;;;;;;5137036;27;19908;-43
2023/08/16 03:03:32;;;;;;;;;;;13.30;99.90;;;;;;5135973;27;20289;-43
2023/08/16 03:05:57;;;;;;;;;;;13.20;99.90;;;;;;5137093;27;19960;-42
2023/08/16 03:08:23;;;;;;;;;;;13.10;99.90;;;;;;5136756;27;19907;-42
2023/08/16 03:10:49;;;;;;;;;;;13.10;99.90;;;;;;5136053;27;19953;-44
2023/08/16 03:13:15;;;;;;;;;;;13.10;99.90;;;;;;5145605;27;19953;-41
2023/08/16 03:15:40;;;;;;;;;;;13.10;99.90;;;;;;5157414;27;19962;-46
2023/08/16 03:18:06;;;;;;;;;;;13.10;99.90;;;;;;5156527;27;19915;-44
2023/08/16 03:20:32;;;;;;;;;;;13.20;99.90;;;;;;5157248;27;19922;-42
2023/08/16 03:22:57;;;;;;;;;;;13.20;99.90;;;;;;5156904;27;19915;-43
2023/08/16 03:25:23;;;;;;;;;;;13.20;99.90;;;;;;5146384;27;20361;-42
2023/08/16 03:27:48;;;;;;;;;;;13.30;99.90;;;;;;5157217;27;19911;-44
2023/08/16 03:30:14;;;;;;;;;;;13.30;99.90;;;;;;5157081;27;19907;-42
2023/08/16 03:32:39;;;;;;;;;;;13.30;99.90;;;;;;5155863;27;19936;-42
2023/08/16 03:35:05;;;;;;;;;;;13.30;99.90;;;;;;5157023;27;20397;-43
2023/08/16 03:37:31;;;;;;;;;;;13.30;99.90;;;;;;5156832;27;19911;-42
2023/08/16 03:39:57;;;;;;;;;;;13.30;99.90;;;;;;5156134;27;19907;-42
2023/08/16 03:42:23;;;;;;;;;;;13.20;99.90;;;;;;5156034;27;19907;-42
2023/08/16 03:44:48;;;;;;;;;;;13.20;99.90;;;;;;5135786;27;19919;-42
2023/08/16 03:47:13;;;;;;;;;;;13.10;99.90;;;;;;5135194;27;19907;-43
2023/08/16 03:49:42;;;;;;;;;;;13.10;99.90;;;;;;5135237;27;21381;-43
2023/08/16 03:52:08;;;;;;;;;;;13.00;99.90;;;;;;5135169;27;19915;-43
2023/08/16 03:54:33;;;;;;;;;;;13.10;99.90;;;;;;5135727;27;19915;-43
2023/08/16 03:56:58;;;;;;;;;;;13.00;99.90;;;;;;5135369;27;20408;-43
2023/08/16 03:59:24;;;;;;;;;;;13.00;99.90;;;;;;5134876;27;20007;-42
2023/08/16 04:01:50;;;;;;;;;;;13.00;99.90;;;;;;5135661;27;20364;-43
2023/08/16 04:04:16;;;;;;;;;;;13.00;99.90;;;;;;5135729;27;19911;-42
2023/08/16 04:06:41;;;;;;;;;;;13.00;99.90;;;;;;5134921;27;19992;-42
2023/08/16 04:09:08;;;;;;;;;;;13.10;99.90;;;;;;5135743;27;19914;-43
2023/08/16 04:11:34;;;;;;;;;;;13.10;99.90;;;;;;5139276;27;19938;-43
2023/08/16 04:13:59;;;;;;;;;;;13.10;99.90;;;;;;5155132;27;20258;-43
2023/08/16 04:16:25;;;;;;;;;;;13.10;99.90;;;;;;5156211;27;19911;-42
2023/08/16 04:18:53;;;;;;;;;;;13.10;99.90;;;;;;5156369;27;19915;-45
2023/08/16 04:21:19;;;;;;;;;;;13.10;99.90;;;;;;5153547;27;20258;-45
2023/08/16 04:23:44;;;;;;;;;;;13.10;99.90;;;;;;5135452;27;20423;-41
2023/08/16 04:26:10;;;;;;;;;;;13.10;99.90;;;;;;5135339;27;19908;-42
2023/08/16 04:28:35;;;;;;;;;;;13.10;99.90;;;;;;5134463;27;19907;-42
2023/08/16 04:31:01;;;;;;;;;;;13.10;99.90;;;;;;5135150;27;19907;-41
2023/08/16 04:33:26;;;;;;;;;;;13.10;99.90;;;;;;5154179;27;19975;-41
2023/08/16 04:35:52;;;;;;;;;;;13.10;99.90;;;;;;5155329;27;19970;-42
2023/08/16 04:38:17;;;;;;;;;;;13.10;99.90;;;;;;5155755;27;19914;-43
2023/08/16 04:40:43;;;;;;;;;;;13.10;99.90;;;;;;5145274;27;19915;-42
2023/08/16 04:43:08;;;;;;;;;;;13.10;99.90;;;;;;5144436;27;19913;-46
2023/08/16 04:45:34;;;;;;;;;;;13.10;99.90;;;;;;5155192;27;20357;-43
2023/08/16 04:47:59;;;;;;;;;;;13.10;99.90;;;;;;5155431;27;19918;-43
2023/08/16 04:50:25;;;;;;;;;;;13.10;99.90;;;;;;5146895;27;19994;-43
2023/08/16 04:52:50;;;;;;;;;;;13.10;99.90;;;;;;5134865;27;19964;-44
2023/08/16 04:55:16;;;;;;;;;;;13.10;99.90;;;;;;5134432;27;20020;-41
2023/08/16 04:57:41;;;;;;;;;;;13.10;99.90;;;;;;5134208;27;19908;-43
2023/08/16 05:00:08;;;;;;;;;;;13.10;99.90;;;;;;5152442;27;20263;-42
2023/08/16 05:02:34;;;;;;;;;;;13.10;99.90;;;;;;5144469;27;19984;-42
2023/08/16 05:05:00;;;;;;;;;;;13.20;99.90;;;;;;5149748;27;20307;-44
2023/08/16 05:07:25;;;;;;;;;;;13.20;99.90;;;;;;5154356;27;19998;-42
2023/08/16 05:09:51;;;;;;;;;;;13.20;99.90;;;;;;5138405;27;20382;-43
2023/08/16 05:12:16;;;;;;;;;;;13.30;99.90;;;;;;5134322;27;19916;-41
2023/08/16 05:14:42;;;;;;;;;;;13.20;99.90;;;;;;5134163;27;20101;-42
2023/08/16 05:17:08;;;;;;;;;;;13.20;99.90;;;;;;5133499;27;19911;-42
2023/08/16 05:19:34;;;;;;;;;;;13.20;99.90;;;;;;5145202;27;20281;-43
2023/08/16 05:22:00;;;;;;;;;;;13.20;99.90;;;;;;5155008;27;19911;-43
2023/08/16 05:24:25;;;;;;;;;;;13.20;99.90;;;;;;5154311;27;19954;-41
2023/08/16 05:26:51;;;;;;;;;;;13.20;99.90;;;;;;5154855;27;19990;-41
2023/08/16 05:29:16;;;;;;;;;;;13.30;99.90;;;;;;5152926;27;19918;-43
2023/08/16 05:31:41;;;;;;;;;;;13.30;99.90;;;;;;5138525;27;19911;-43
2023/08/16 05:34:07;;;;;;;;;;;13.30;99.90;;;;;;5133398;27;19912;-43
2023/08/16 05:36:32;;;;;;;;;;;13.40;99.90;;;;;;5132603;27;19918;-44
2023/08/16 05:38:58;;;;;;;;;;;13.40;99.90;;;;;;5132910;27;19908;-42
2023/08/16 05:41:23;;;;;;;;;;;13.50;99.90;;;;;;5133685;27;19911;-42
2023/08/16 05:43:49;;;;;;;;;;;13.50;99.90;;;;;;5134615;27;20395;-43
2023/08/16 05:46:16;;;;;;;;;;;13.50;99.90;;;;;;5144380;27;19911;-44
2023/08/16 05:48:41;;;;;;;;;;;13.60;99.90;;;;;;5125445;27;19974;-42
2023/08/16 05:51:07;;;;;;;;;;;13.70;99.90;;;;;;5143958;27;19958;-42
2023/08/16 05:53:32;;;;;;;;;;;13.70;99.90;;;;;;5141842;27;19908;-44
2023/08/16 05:55:58;;;;;;;;;;;13.80;99.90;;;;;;5151757;27;19917;-43
2023/08/16 05:58:24;;;;;;;;;;;13.90;99.90;;;;;;5141571;27;20053;-44
2023/08/16 06:00:52;;;;;;;;;;;14.00;99.90;;;;;;5148520;27;19908;-42
2023/08/16 06:03:17;;;;;;;;;;;14.10;99.90;;;;;;5145834;27;20036;-43
2023/08/16 06:05:43;;;;;;;;;;;14.10;99.90;;;;;;5132981;28;19998;-43
2023/08/16 06:08:08;;;;;;;;;;;14.20;99.90;;;;;;5139693;27;19961;-43
2023/08/16 06:10:34;;;;;;;;;;;14.20;99.90;;;;;;5145077;27;19911;-45
2023/08/16 06:12:59;;;;;;;;;;;14.30;99.90;;;;;;5133592;27;19918;-43
2023/08/16 06:15:25;;;;;;;;;;;14.40;99.90;;;;;;5139817;27;19919;-43
2023/08/16 06:17:50;;;;;;;;;;;14.50;99.90;;;;;;5141300;27;19955;-41
2023/08/16 06:20:16;;;;;;;;;;;14.60;99.90;;;;;;5122450;27;20375;-43
2023/08/16 06:22:42;;;;;;;;;;;14.70;99.90;;;;;;5143329;27;19956;-42
2023/08/16 06:25:08;;;;;;;;;;;14.70;99.90;;;;;;5136481;27;19968;-42
2023/08/16 06:27:34;;;;;;;;;;;14.80;99.90;;;;;;5142473;27;19972;-42
2023/08/16 06:29:59;;;;;;;;;;;14.90;99.90;;;;;;5139845;27;19981;-43
2023/08/16 06:32:25;;;;;;;;;;;15.00;99.90;;;;;;5137856;27;19916;-41
2023/08/16 06:34:50;;;;;;;;;;;15.10;99.90;;;;;;5131562;27;19927;-45
2023/08/16 06:37:16;;;;;;;;;;;15.20;99.90;;;;;;5137219;27;19954;-43
2023/08/16 06:39:42;;;;;;;;;;;15.20;99.90;;;;;;5152017;27;20463;-41
2023/08/16 06:42:09;;;;;;;;;;;15.30;99.90;;;;;;5130603;27;20285;-43
2023/08/16 06:44:35;;;;;;;;;;;15.40;99.90;;;;;;5132828;27;19950;-41
2023/08/16 06:47:01;;;;;;;;;;;15.40;99.90;;;;;;5152010;27;20005;-43
2023/08/16 06:49:26;;;;;;;;;;;15.50;99.90;;;;;;5136294;27;19951;-42
2023/08/16 06:51:51;;;;;;;;;;;15.60;99.90;;;;;;5139385;27;19916;-43
2023/08/16 06:54:17;;;;;;;;;;;15.60;99.90;;;;;;5126488;27;19915;-44
2023/08/16 06:56:42;;;;;;;;;;;15.70;99.90;;;;;;5132473;27;20272;-43
2023/08/16 06:59:08;;;;;;;;;;;15.70;99.90;;;;;;5116243;28;19908;-43
2023/08/16 07:01:33;;;;;;;;;;;15.80;99.90;;;;;;5116868;27;19908;-44
2023/08/16 07:03:59;;;;;;;;;;;15.90;99.90;;;;;;5144450;27;20257;-43
2023/08/16 07:06:26;;;;;;;;;;;16.10;99.90;;;;;;5157528;27;19907;-43
2023/08/16 07:08:52;;;;;;;;;;;16.20;99.90;;;;;;5157620;27;19907;-43
2023/08/16 07:11:17;;;;;;;;;;;16.30;99.90;;;;;;5156654;27;19930;-46
2023/08/16 07:13:43;;;;;;;;;;;16.40;99.90;;;;;;5157385;27;19911;-45
2023/08/16 07:16:08;;;;;;;;;;;16.50;99.90;;;;;;5145679;27;20006;-44
2023/08/16 07:18:34;;;;;;;;;;;16.60;99.90;;;;;;5148257;27;19919;-43
2023/08/16 07:20:59;;;;;;;;;;;16.60;99.90;;;;;;5150298;27;19911;-43
2023/08/16 07:23:25;;;;;;;;;;;16.70;99.90;;;;;;5138500;27;19923;-43
2023/08/16 07:25:54;;;;;;;;;;;16.80;99.90;;;;;;5148182;27;19952;-43
2023/08/16 07:28:20;;;;;;;;;;;16.90;99.90;;;;;;5137826;27;20449;-44
2023/08/16 07:30:45;;;;;;;;;;;16.90;99.90;;;;;;5119322;27;20006;-43
2023/08/16 07:33:11;;;;;;;;;;;17.00;99.90;;;;;;5128574;27;19956;-44
2023/08/16 07:35:36;;;;;;;;;;;17.10;99.90;;;;;;5146437;27;20017;-45
2023/08/16 07:38:02;;;;;;;;;;;17.10;99.90;;;;;;5145229;27;20319;-44
2023/08/16 07:40:28;;;;;;;;;;;17.20;99.90;;;;;;5136797;27;20011;-42
2023/08/16 07:42:53;;;;;;;;;;;17.20;99.90;;;;;;5122683;27;20374;-42
2023/08/16 07:45:18;;;;;;;;;;;17.20;99.90;;;;;;5114482;28;19923;-46
2023/08/16 07:47:44;;;;;;;;;;;17.30;99.90;;;;;;5131764;27;20010;-44
2023/08/16 07:50:10;;;;;;;;;;;17.30;99.90;;;;;;5136054;27;19907;-42
2023/08/16 07:52:35;;;;;;;;;;;17.40;99.90;;;;;;5135048;27;20052;-44
2023/08/16 07:55:00;;;;;;;;;;;17.50;99.90;;;;;;5135794;27;19915;-44
2023/08/16 07:57:26;;;;;;;;;;;17.50;99.90;;;;;;5147400;27;19965;-43
2023/08/16 07:59:52;;;;;;;;;;;17.60;99.90;;;;;;5144953;27;20186;-44
2023/08/16 08:02:17;;;;;;;;;;;17.70;99.90;;;;;;5115671;28;19961;-42
2023/08/16 08:04:44;;;;;;;;;;;17.70;99.90;;;;;;5115992;28;19908;-46
2023/08/16 08:07:11;;;;;;;;;;;17.80;99.90;;;;;;5132067;27;19911;-43
2023/08/16 08:09:36;;;;;;;;;;;17.80;99.90;;;;;;5116026;28;19908;-45
2023/08/16 08:12:02;;;;;;;;;;;17.80;99.90;;;;;;5115822;28;19912;-44
2023/08/16 08:14:28;;;;;;;;;;;17.90;99.90;;;;;;5114958;28;20003;-44
2023/08/16 08:16:54;;;;;;;;;;;18.00;99.90;;;;;;5134531;27;19920;-44
2023/08/16 08:19:20;;;;;;;;;;;18.10;99.90;;;;;;5134564;27;19926;-44
2023/08/16 08:21:45;;;;;;;;;;;18.20;99.90;;;;;;5123023;27;19998;-44
2023/08/16 08:24:11;;;;;;;;;;;18.30;99.90;;;;;;5121958;27;19911;-43
2023/08/16 08:26:36;;;;;;;;;;;18.40;99.90;;;;;;5146581;27;20372;-45
2023/08/16 08:29:02;;;;;;;;;;;18.50;99.90;;;;;;5141356;27;19956;-44
2023/08/16 08:31:28;;;;;;;;;;;18.60;99.90;;;;;;5134942;27;19963;-43
2023/08/16 08:33:53;;;;;;;;;;;18.70;99.90;;;;;;5135548;27;19911;-42
2023/08/16 08:36:19;;;;;;;;;;;18.80;99.90;;;;;;5119297;27;19918;-47
2023/08/16 08:38:44;;;;;;;;;;;18.80;99.90;;;;;;5127603;27;19911;-43
2023/08/16 08:41:10;;;;;;;;;;;19.00;99.90;;;;;;5149431;27;19918;-46
2023/08/16 08:43:36;;;;;;;;;;;19.00;99.90;;;;;;5135347;27;20022;-43
2023/08/16 08:46:03;;;;;;;;;;;19.10;99.90;;;;;;5135684;27;19908;-44
2023/08/16 08:48:28;;;;;;;;;;;19.10;99.90;;;;;;5136774;27;19955;-43
2023/08/16 08:50:54;;;;;;;;;;;19.10;99.90;;;;;;5155830;27;19961;-44
2023/08/16 08:53:20;;;;;;;;;;;19.10;99.90;;;;;;5139536;27;19908;-45
2023/08/16 08:55:47;;;;;;;;;;;19.10;99.90;;;;;;5134835;27;19915;-44
2023/08/16 08:58:13;;;;;;;;;;;19.10;99.90;;;;;;5147781;27;19918;-45
2023/08/16 09:00:39;;;;;;;;;;;19.10;99.90;;;;;;5137509;27;19911;-44
2023/08/16 09:03:07;;;;;;;;;;;19.10;99.90;;;;;;5127449;27;19911;-43
2023/08/16 09:05:33;;;;;;;;;;;19.20;99.90;;;;;;5139112;27;20010;-44
2023/08/16 09:07:59;;;;;;;;;;;19.20;99.90;;;;;;5155278;27;19995;-44
2023/08/16 09:10:26;;;;;;;;;;;19.30;99.90;;;;;;5154281;27;20365;-44
2023/08/16 09:12:52;;;;;;;;;;;19.40;99.90;;;;;;5155203;27;19953;-45
2023/08/16 09:15:18;;;;;;;;;;;19.40;99.90;;;;;;5152814;27;20427;-42
2023/08/16 09:17:45;;;;;;;;;;;19.50;99.90;;;;;;5133626;27;19907;-45
2023/08/16 09:20:11;;;;;;;;;;;19.50;99.90;;;;;;5134263;27;19908;-45
2023/08/16 09:22:37;;;;;;;;;;;19.60;99.90;;;;;;5133419;27;19914;-43
2023/08/16 09:25:03;;;;;;;;;;;19.70;99.90;;;;;;5134226;27;19986;-48
2023/08/16 09:27:29;;;;;;;;;;;19.70;99.90;;;;;;5153633;27;19915;-44
2023/08/16 09:29:55;;;;;;;;;;;19.80;99.90;;;;;;5154254;27;19911;-43
2023/08/16 09:32:21;;;;;;;;;;;19.90;99.90;;;;;;5154739;27;19907;-45
2023/08/16 09:34:47;;;;;;;;;;;20.00;99.90;;;;;;5154768;27;19921;-43
2023/08/16 09:37:13;;;;;;;;;;;20.10;99.90;;;;;;5135981;27;19911;-46
2023/08/16 09:39:38;;;;;;;;;;;20.30;99.90;;;;;;5134132;27;19908;-44
2023/08/16 09:42:08;;;;;;;;;;;20.50;99.90;;;;;;5134072;27;20417;-44
2023/08/16 09:44:36;;;;;;;;;;;20.60;99.90;;;;;;5132940;27;20019;-43
2023/08/16 09:47:14;;;;;;;;;;;20.60;99.90;;;;;;5149455;27;19918;-44
2023/08/16 09:49:40;;;;;;;;;;;20.70;99.90;;;;;;5154549;27;19914;-46
2023/08/16 09:52:12;;;;;;;;;;;20.70;99.90;;;;;;5153881;27;19914;-45
2023/08/16 09:54:38;;;;;;;;;;;20.70;99.90;;;;;;5135502;27;20277;-43
2023/08/16 09:57:04;;;;;;;;;;;20.80;99.90;;;;;;5138538;27;19911;-45
2023/08/16 09:59:30;;;;;;;;;;;20.80;99.90;;;;;;5132924;28;19990;-45
2023/08/16 10:01:57;;;;;;;;;;;20.90;99.90;;;;;;5133655;28;19998;-45
2023/08/16 10:04:22;;;;;;;;;;;20.90;99.90;;;;;;5133517;28;19966;-43
2023/08/16 10:06:48;;;;;;;;;;;20.90;99.90;;;;;;5148778;27;20333;-46
2023/08/16 10:09:15;;;;;;;;;;;20.90;99.90;;;;;;5154366;27;19907;-44
2023/08/16 10:11:40;;;;;;;;;;;21.00;99.90;;;;;;5154430;27;19907;-44
2023/08/16 10:14:09;;;;;;;;;;;21.00;99.90;;;;;;5153680;27;20280;-43
2023/08/16 10:16:35;;;;;;;;;;;21.00;99.90;;;;;;5140307;27;20324;-45
2023/08/16 10:19:01;;;;;;;;;;;21.10;99.90;;;;;;5132724;28;19908;-45
2023/08/16 10:21:27;;;;;;;;;;;21.20;99.90;;;;;;5133543;28;20342;-45
2023/08/16 10:23:54;;;;;;;;;;;21.20;99.90;;;;;;5133562;28;20002;-48
2023/08/16 10:26:22;;;;;;;;;;;21.30;99.90;;;;;;5146730;27;19911;-44
2023/08/16 10:28:54;;;;;;;;;;;21.40;99.90;;;;;;5154221;27;19911;-44
2023/08/16 10:31:22;;;;;;;;;;;21.50;99.90;;;;;;5154158;27;20404;-42
2023/08/16 10:33:49;;;;;;;;;;;21.60;99.90;;;;;;5153315;27;19954;-47
2023/08/16 10:36:15;;;;;;;;;;;21.70;99.90;;;;;;5141151;27;19916;-44
2023/08/16 10:38:44;;;;;;;;;;;21.80;99.90;;;;;;5133524;28;19907;-44
2023/08/16 10:41:13;;;;;;;;;;;21.90;99.90;;;;;;5132542;28;19907;-46
2023/08/16 10:43:44;;;;;;;;;;;22.00;99.90;;;;;;5132966;28;19926;-45
2023/08/16 10:46:09;;;;;;;;;;;22.00;99.90;;;;;;5144274;27;19926;-43
2023/08/16 10:48:35;;;;;;;;;;;22.00;99.90;;;;;;5153242;27;19911;-43
2023/08/16 10:51:05;;;;;;;;;;;22.10;99.90;;;;;;5145517;27;19911;-43
2023/08/16 10:53:31;;;;;;;;;;;22.10;99.90;;;;;;5133070;28;19911;-44
2023/08/16 10:55:57;;;;;;;;;;;22.10;99.90;;;;;;5141250;27;19969;-43
2023/08/16 10:58:23;;;;;;;;;;;22.10;99.90;;;;;;5153912;27;19914;-46
2023/08/16 11:00:58;;;;;;;;;;;22.10;99.90;;;;;;5154023;27;19907;-43
2023/08/16 11:03:31;;;;;;;;;;;22.00;99.90;;;;;;5153001;27;19952;-43
2023/08/16 11:05:58;;;;;;;;;;;21.80;99.90;;;;;;5145926;27;19926;-44
2023/08/16 11:08:23;;;;;;;;;;;21.80;99.90;;;;;;5135909;27;19976;-43
2023/08/16 11:10:50;;;;;;;;;;;22.00;99.90;;;;;;5136761;27;20320;-44
2023/08/16 11:13:15;;;;;;;;;;;22.20;99.90;;;;;;5136727;27;20411;-43
2023/08/16 11:15:41;;;;;;;;;;;22.40;99.90;;;;;;5142060;27;19923;-44
2023/08/16 11:18:07;;;;;;;;;;;22.50;99.90;;;;;;5157452;27;19907;-44
2023/08/16 11:20:32;;;;;;;;;;;22.60;99.90;;;;;;5157258;27;19915;-44
2023/08/16 11:22:58;;;;;;;;;;;22.60;99.90;;;;;;5156705;27;19907;-44
2023/08/16 11:25:30;;;;;;;;;;;22.50;99.90;;;;;;5153258;27;19915;-43
2023/08/16 11:27:59;;;;;;;;;;;22.50;99.90;;;;;;5136587;27;19914;-43
2023/08/16 11:30:25;;;;;;;;;;;22.50;99.90;;;;;;5135620;27;20401;-43
2023/08/16 11:32:50;;;;;;;;;;;22.70;99.90;;;;;;5136592;27;20003;-43
2023/08/16 11:35:16;;;;;;;;;;;22.80;99.90;;;;;;5138089;27;19916;-43
2023/08/16 11:37:41;;;;;;;;;;;23.00;99.90;;;;;;5132715;27;19927;-45
2023/08/16 11:40:08;;;;;;;;;;;23.10;99.90;;;;;;5120501;27;20385;-43
2023/08/16 11:42:34;;;;;;;;;;;23.00;99.90;;;;;;5135275;27;19918;-43
2023/08/16 11:45:00;;;;;;;;;;;23.00;99.90;;;;;;5135032;27;19923;-44
2023/08/16 11:47:26;;;;;;;;;;;23.00;99.90;;;;;;5148280;27;19999;-43
2023/08/16 11:49:51;;;;;;;;;;;23.20;99.90;;;;;;5131958;27;19950;-42
2023/08/16 11:52:20;;;;;;;;;;;23.30;99.90;;;;;;5148259;27;20254;-44
2023/08/16 11:54:46;;;;;;;;;;;23.30;99.90;;;;;;5156470;27;19919;-44
2023/08/16 11:57:16;;;;;;;;;;;23.30;99.90;;;;;;5153226;27;19918;-43
2023/08/16 11:59:42;;;;;;;;;;;23.40;99.90;;;;;;5145686;27;19964;-43
2023/08/16 12:02:08;;;;;;;;;;;23.50;99.90;;;;;;5131761;27;19916;-44
2023/08/16 12:04:34;;;;;;;;;;;23.50;99.90;;;;;;5125426;27;19916;-44
2023/08/16 12:06:59;;;;;;;;;;;23.60;99.90;;;;;;5119647;27;20298;-48
2023/08/16 12:09:25;;;;;;;;;;;23.60;99.90;;;;;;5126495;27;19947;-46
2023/08/16 12:11:54;;;;;;;;;;;23.70;99.90;;;;;;5127319;27;19950;-44
2023/08/16 12:14:19;;;;;;;;;;;23.80;99.90;;;;;;5147869;27;19994;-46
2023/08/16 12:16:45;;;;;;;;;;;23.80;99.90;;;;;;5124258;27;20003;-44
2023/08/16 12:19:16;;;;;;;;;;;24.00;99.90;;;;;;5129530;27;19907;-49
2023/08/16 12:21:42;;;;;;;;;;;24.20;99.90;;;;;;5135379;27;19930;-44
2023/08/16 12:24:07;;;;;;;;;;;24.20;99.90;;;;;;5146162;27;20285;-48
2023/08/16 12:26:32;;;;;;;;;;;24.20;99.90;;;;;;5155013;27;19913;-45
2023/08/16 12:28:58;;;;;;;;;;;24.20;99.90;;;;;;5156593;27;20302;-46
2023/08/16 12:31:23;;;;;;;;;;;24.20;99.90;;;;;;5156309;27;20005;-46
2023/08/16 12:33:49;;;;;;;;;;;24.30;99.90;;;;;;5148079;27;19912;-45
2023/08/16 12:36:14;;;;;;;;;;;24.40;99.90;;;;;;5135861;27;19970;-43
2023/08/16 12:38:40;;;;;;;;;;;24.30;99.90;;;;;;5135973;27;20392;-46
2023/08/16 12:41:07;;;;;;;;;;;24.30;99.90;;;;;;5134572;27;19952;-46
2023/08/16 12:43:32;;;;;;;;;;;24.20;99.90;;;;;;5138951;27;19911;-44
2023/08/16 12:46:02;;;;;;;;;;;24.10;99.90;;;;;;5134740;27;19911;-46
2023/08/16 12:48:27;;;;;;;;;;;24.20;99.90;;;;;;5130881;27;19938;-47
2023/08/16 12:50:53;;;;;;;;;;;24.20;99.90;;;;;;5122177;27;20354;-44
2023/08/16 12:53:18;;;;;;;;;;;24.40;99.90;;;;;;5129694;27;19919;-44
2023/08/16 12:55:44;;;;;;;;;;;24.60;99.90;;;;;;5129025;27;19919;-45
2023/08/16 12:58:09;;;;;;;;;;;24.80;99.90;;;;;;5125993;27;20002;-45
2023/08/16 13:00:35;;;;;;;;;;;25.20;99.90;;;;;;5117257;27;19954;-43
2023/08/16 13:03:03;;;;;;;;;;;25.50;99.90;;;;;;5130707;27;19972;-43
2023/08/16 13:05:30;;;;;;;;;;;25.90;99.90;;;;;;5121467;27;19912;-44
2023/08/16 13:07:55;;;;;;;;;;;26.20;99.90;;;;;;5128171;27;19922;-45
2023/08/16 13:10:21;;;;;;;;;;;26.60;99.90;;;;;;5115058;27;19912;-45
2023/08/16 13:12:46;;;;;;;;;;;26.90;99.90;;;;;;5126084;27;19912;-45
2023/08/16 13:15:12;;;;;;;;;;;27.10;99.90;;;;;;5118775;27;19983;-45
2023/08/16 13:17:38;;;;;;;;;;;27.30;99.90;;;;;;5122034;27;20354;-43
2023/08/16 13:20:08;;;;;;;;;;;27.50;99.90;;;;;;5118078;27;19911;-45
2023/08/16 13:22:34;;;;;;;;;;;27.70;99.90;;;;;;5125737;27;19965;-45
2023/08/16 13:25:01;;;;;;;;;;;27.90;99.90;;;;;;5129986;27;19915;-45
2023/08/16 13:27:26;;;;;;;;;;;27.90;99.90;;;;;;5124531;27;20499;-46
2023/08/16 13:29:52;;;;;;;;;;;27.90;99.90;;;;;;5132789;27;19918;-44
2023/08/16 13:32:18;;;;;;;;;;;27.80;99.90;;;;;;5134471;27;20285;-43
2023/08/16 13:34:44;;;;;;;;;;;27.70;99.90;;;;;;5133815;27;20342;-45
2023/08/16 13:37:10;;;;;;;;;;;27.60;99.90;;;;;;5132470;27;19915;-45
2023/08/16 13:39:36;;;;;;;;;;;27.70;99.90;;;;;;5132886;27;20059;-45
2023/08/16 13:42:01;;;;;;;;;;;27.70;99.90;;;;;;5118747;27;20425;-45
2023/08/16 13:44:27;;;;;;;;;;;27.90;99.90;;;;;;5151453;27;19919;-46
2023/08/16 13:46:53;;;;;;;;;;;27.90;99.90;;;;;;5154023;27;19907;-45
2023/08/16 13:49:18;;;;;;;;;;;27.60;99.50;;;;;;5154861;27;19907;-43
2023/08/16 13:51:44;;;;;;;;;;;27.50;99.90;;;;;;5154333;27;20273;-44
2023/08/16 13:54:09;;;;;;;;;;;27.30;99.90;;;;;;5131306;27;19920;-43
2023/08/16 13:56:35;;;;;;;;;;;27.30;99.90;;;;;;5113715;28;19955;-45
2023/08/16 13:59:00;;;;;;;;;;;27.60;99.90;;;;;;5113243;28;19908;-47
2023/08/16 14:01:26;;;;;;;;;;;27.80;99.90;;;;;;5113621;28;19915;-45
2023/08/16 14:03:51;;;;;;;;;;;28.20;99.90;;;;;;5148886;27;19911;-49
2023/08/16 14:06:17;;;;;;;;;;;28.40;99.90;;;;;;5150000;27;19912;-45
2023/08/16 14:08:42;;;;;;;;;;;28.10;99.90;;;;;;5133988;27;20420;-50